Time;durP1;ratioP1;P1;durP2;ratioP2;P2;SDS_P1;SDS_P2;PMS_P1;PMS_P2;Temp;Humidity;BMP_temperature;BMP_pressure;BME280_temperature;BME280_humidity;BME280_pressure;Samples;Min_cycle;Max_cycle;Signal;HPM_P1;HPM_P2
2023/08/23 00:01:02;;;;;;;;;;;;;;;27.68;41.19;99754.16;3159002;28;19924;-73
2023/08/23 00:02:33;;;;;;;;;;;;;;;27.68;41.32;99753.34;3138042;28;19943;-73
2023/08/23 00:04:04;;;;;;;;;;;;;;;27.68;41.48;99753.34;3158943;28;20026;-73
2023/08/23 00:05:37;;;;;;;;;;;;;;;27.68;41.15;99761.38;3159192;28;19920;-73
2023/08/23 00:07:08;;;;;;;;;;;;;;;27.69;41.25;99760.38;3156449;28;19942;-73
2023/08/23 00:08:39;;;;;;;;;;;;;;;27.67;41.25;99757.88;3159067;28;19924;-73
2023/08/23 00:10:10;;;;;;;;;;;;;;;27.67;41.46;99754.38;3159277;28;19920;-75
2023/08/23 00:11:41;;;;;;;;;;;;;;;27.66;41.63;99758.06;3157770;28;19927;-75
2023/08/23 00:13:13;;;;;;;;;;;;;;;27.63;41.28;99761.09;3146312;28;19932;-75
2023/08/23 00:14:45;;;;;;;;;;;;;;;27.59;41.50;99762.44;3156109;28;19924;-76
2023/08/23 00:16:15;;;;;;;;;;;;;;;27.55;41.80;99753.97;3159105;28;19920;-75
2023/08/23 00:17:47;;;;;;;;;;;;;;;27.54;41.40;99757.66;3158922;28;19934;-76
2023/08/23 00:19:17;;;;;;;;;;;;;;;27.54;41.77;99749.63;3158888;28;19977;-76
2023/08/23 00:20:50;;;;;;;;;;;;;;;27.55;41.37;99753.97;3158879;28;20065;-76
2023/08/23 00:22:21;;;;;;;;;;;;;;;27.55;41.46;99759.31;3154504;28;19943;-76
2023/08/23 00:23:52;;;;;;;;;;;;;;;27.56;41.23;99760.13;3150910;28;19924;-75
2023/08/23 00:25:24;;;;;;;;;;;;;;;27.56;41.38;99754.78;3146484;28;19920;-77
2023/08/23 00:26:54;;;;;;;;;;;;;;;27.56;41.68;99762.81;3142291;28;19928;-77
2023/08/23 00:28:26;;;;;;;;;;;;;;;27.56;41.41;99757.47;3146573;28;19927;-78
2023/08/23 00:29:56;;;;;;;;;;;;;;;27.56;41.55;99760.97;3146725;28;19925;-78
2023/08/23 00:31:28;;;;;;;;;;;;;;;27.57;41.32;99759.97;3142930;28;19921;-79
2023/08/23 00:32:58;;;;;;;;;;;;;;;27.56;41.22;99762.81;3146518;28;19947;-78
2023/08/23 00:34:30;;;;;;;;;;;;;;;27.55;41.71;99764.66;3146694;28;19921;-78
2023/08/23 00:36:02;;;;;;;;;;;;;;;27.53;41.45;99760.50;3146262;28;19921;-78
2023/08/23 00:37:34;;;;;;;;;;;;;;;27.52;41.33;99767.69;3134160;28;19928;-73
2023/08/23 00:39:04;;;;;;;;;;;;;;;27.52;41.89;99769.53;3140563;28;20341;-74
2023/08/23 00:40:36;;;;;;;;;;;;;;;27.50;41.56;99766.22;3146325;28;19921;-74
2023/08/23 00:42:06;;;;;;;;;;;;;;;27.50;41.44;99761.69;3141669;28;19924;-75
2023/08/23 00:43:38;;;;;;;;;;;;;;;27.50;41.51;99768.88;3141767;28;19920;-75
2023/08/23 00:45:10;;;;;;;;;;;;;;;27.50;41.55;99759.00;3146398;28;19924;-75
2023/08/23 00:46:40;;;;;;;;;;;;;;;27.51;41.39;99766.03;3146565;28;19928;-76
2023/08/23 00:48:12;;;;;;;;;;;;;;;27.51;41.67;99763.38;3146053;28;19924;-76
2023/08/23 00:49:46;;;;;;;;;;;;;;;27.52;41.52;99770.38;3146209;28;19920;-75
2023/08/23 00:51:18;;;;;;;;;;;;;;;27.52;41.81;99766.88;3137746;28;20019;-76
2023/08/23 00:52:50;;;;;;;;;;;;;;;27.53;41.71;99772.03;3134443;28;19987;-76
2023/08/23 00:54:20;;;;;;;;;;;;;;;27.52;41.87;99769.53;3145463;28;19925;-76
2023/08/23 00:55:52;;;;;;;;;;;;;;;27.51;41.39;99773.22;3141607;28;19931;-73
2023/08/23 00:57:25;;;;;;;;;;;;;;;27.50;41.71;99775.06;3145741;28;19925;-73
2023/08/23 00:58:55;;;;;;;;;;;;;;;27.48;41.81;99769.09;3146216;28;19932;-76
2023/08/23 01:00:27;;;;;;;;;;;;;;;27.46;41.81;99773.78;3145686;28;19931;-75
2023/08/23 01:01:58;;;;;;;;;;;;;;;27.42;41.96;99775.97;3130691;28;19921;-74
2023/08/23 01:03:30;;;;;;;;;;;;;;;27.41;41.70;99776.97;3141503;28;19946;-75
2023/08/23 01:05:00;;;;;;;;;;;;;;;27.41;42.08;99776.13;3145519;28;19943;-75
2023/08/23 01:06:38;;;;;;;;;;;;;;;27.41;41.81;99773.47;3145918;28;19924;-75
2023/08/23 01:08:14;;;;;;;;;;;;;;;27.40;41.60;99774.50;3143421;28;19931;-75
2023/08/23 01:09:49;;;;;;;;;;;;;;;27.39;42.02;99772.81;3145506;28;20282;-75
2023/08/23 01:11:23;;;;;;;;;;;;;;;27.34;41.93;99773.34;3137771;28;19920;-74
2023/08/23 01:13:00;;;;;;;;;;;;;;;27.27;42.21;99774.22;3145528;28;20282;-75
2023/08/23 01:14:36;;;;;;;;;;;;;;;27.19;42.38;99772.47;3141440;28;19928;-74
2023/08/23 01:16:09;;;;;;;;;;;;;;;27.15;42.58;99771.13;3145448;28;19924;-74
2023/08/23 01:17:42;;;;;;;;;;;;;;;27.13;42.36;99767.81;3145333;28;19920;-74
2023/08/23 01:19:24;;;;;;;;;;;;;;;27.11;42.61;99769.81;3145483;28;19971;-74
2023/08/23 01:20:55;;;;;;;;;;;;;;;27.09;42.39;99763.78;3145255;28;19936;-74
2023/08/23 01:22:30;;;;;;;;;;;;;;;27.08;42.75;99771.00;3135914;28;20701;-74
2023/08/23 01:24:08;;;;;;;;;;;;;;;27.04;42.85;99772.38;3132087;28;19927;-74
2023/08/23 01:25:43;;;;;;;;;;;;;;;26.99;42.66;99772.88;3140683;28;19921;-74
2023/08/23 01:27:16;;;;;;;;;;;;;;;26.93;42.98;99778.94;3145411;28;19931;-74
2023/08/23 01:28:50;;;;;;;;;;;;;;;26.83;43.22;99761.44;3145569;28;19924;-74
2023/08/23 01:30:22;;;;;;;;;;;;;;;26.79;43.57;99766.31;3145484;28;20301;-74
2023/08/23 01:31:54;;;;;;;;;;;;;;;26.72;43.55;99760.84;3141579;28;20443;-75
2023/08/23 01:33:28;;;;;;;;;;;;;;;26.68;43.59;99761.34;3145663;28;19999;-75
2023/08/23 01:35:01;;;;;;;;;;;;;;;26.63;43.79;99769.06;3145236;28;19927;-75
2023/08/23 01:36:32;;;;;;;;;;;;;;;26.59;44.05;99765.91;3145546;28;19931;-75
2023/08/23 01:38:05;;;;;;;;;;;;;;;26.53;44.22;99764.78;3126111;28;19976;-75
2023/08/23 01:39:37;;;;;;;;;;;;;;;26.47;44.30;99757.44;3137240;28;19928;-75
2023/08/23 01:41:08;;;;;;;;;;;;;;;26.42;44.45;99761.63;3120712;28;19921;-75
2023/08/23 01:42:39;;;;;;;;;;;;;;;26.37;44.22;99767.47;3144703;28;20010;-75
2023/08/23 01:44:11;;;;;;;;;;;;;;;26.33;44.31;99774.16;3145379;28;19920;-75
2023/08/23 01:45:41;;;;;;;;;;;;;;;26.29;44.65;99765.63;3145578;28;19930;-75
2023/08/23 01:47:14;;;;;;;;;;;;;;;26.26;44.72;99771.31;3136388;28;20302;-76
2023/08/23 01:48:46;;;;;;;;;;;;;;;26.26;44.29;99765.97;3133270;28;19994;-75
2023/08/23 01:50:16;;;;;;;;;;;;;;;26.27;44.13;99767.66;3140602;28;19932;-75
2023/08/23 01:51:48;;;;;;;;;;;;;;;26.30;44.17;99771.84;3145379;28;19921;-76
2023/08/23 01:53:18;;;;;;;;;;;;;;;26.28;44.13;99773.84;3138812;28;19926;-76
2023/08/23 01:54:51;;;;;;;;;;;;;;;26.27;44.10;99767.66;3140460;28;20409;-76
2023/08/23 01:56:22;;;;;;;;;;;;;;;26.29;44.20;99775.50;3145555;28;20019;-76
2023/08/23 01:57:53;;;;;;;;;;;;;;;26.29;43.99;99768.31;3145081;28;20281;-73
2023/08/23 01:59:25;;;;;;;;;;;;;;;26.30;44.15;99770.00;3145315;28;19942;-75
2023/08/23 02:00:58;;;;;;;;;;;;;;;26.30;44.11;99774.50;3145456;28;19925;-77
2023/08/23 02:02:29;;;;;;;;;;;;;;;26.30;44.29;99777.19;3124006;28;19921;-76
2023/08/23 02:04:01;;;;;;;;;;;;;;;26.31;43.90;99770.81;3145337;28;19935;-75
2023/08/23 02:05:31;;;;;;;;;;;;;;;26.31;43.80;99773.50;3145280;28;19990;-75
2023/08/23 02:07:03;;;;;;;;;;;;;;;26.32;43.80;99773.34;3141889;28;19924;-71
2023/08/23 02:08:34;;;;;;;;;;;;;;;26.32;44.14;99769.81;3140841;28;19932;-71
2023/08/23 02:10:08;;;;;;;;;;;;;;;26.32;43.76;99772.47;3143124;28;19999;-71
2023/08/23 02:11:39;;;;;;;;;;;;;;;26.29;43.84;99770.16;3144716;28;19973;-70
2023/08/23 02:13:10;;;;;;;;;;;;;;;26.27;44.18;99774.84;3142659;28;20010;-71
2023/08/23 02:14:42;;;;;;;;;;;;;;;26.29;44.02;99776.31;3140966;28;19920;-72
2023/08/23 02:16:12;;;;;;;;;;;;;;;26.30;43.78;99771.84;3145089;28;19924;-71
2023/08/23 02:17:44;;;;;;;;;;;;;;;26.31;43.87;99779.66;3145263;28;19921;-71
2023/08/23 02:19:15;;;;;;;;;;;;;;;26.31;43.90;99779.66;3145153;28;19957;-71
2023/08/23 02:20:46;;;;;;;;;;;;;;;26.32;43.83;99768.00;3145488;28;19924;-71
2023/08/23 02:22:18;;;;;;;;;;;;;;;26.31;44.19;99776.16;3137729;28;19921;-71
2023/08/23 02:23:48;;;;;;;;;;;;;;;26.29;43.75;99781.66;3130612;28;19927;-71
2023/08/23 02:25:21;;;;;;;;;;;;;;;26.29;44.17;99775.50;3150184;28;19927;-72
2023/08/23 02:26:53;;;;;;;;;;;;;;;26.26;44.27;99768.66;3157445;28;19981;-69
2023/08/23 02:28:23;;;;;;;;;;;;;;;26.24;44.16;99769.84;3157827;28;19920;-71
2023/08/23 02:29:55;;;;;;;;;;;;;;;26.17;44.65;99769.69;3157787;28;19920;-71
2023/08/23 02:31:25;;;;;;;;;;;;;;;26.13;44.37;99770.22;3157325;28;19923;-71
2023/08/23 02:32:57;;;;;;;;;;;;;;;26.10;44.67;99768.72;3157613;28;20422;-71
2023/08/23 02:34:27;;;;;;;;;;;;;;;26.10;44.59;99776.72;3157839;28;19920;-71
2023/08/23 02:35:59;;;;;;;;;;;;;;;26.09;44.73;99769.72;3148401;28;20637;-73
2023/08/23 02:37:29;;;;;;;;;;;;;;;26.09;44.88;99767.06;3148513;28;20455;-73
2023/08/23 02:39:01;;;;;;;;;;;;;;;26.08;44.53;99773.38;3153248;28;19920;-73
2023/08/23 02:40:33;;;;;;;;;;;;;;;26.07;44.69;99772.53;3158035;28;20448;-73
2023/08/23 02:42:05;;;;;;;;;;;;;;;26.08;44.50;99781.38;3157483;28;19998;-73
2023/08/23 02:43:35;;;;;;;;;;;;;;;26.07;44.48;99777.88;3153193;28;19920;-73
2023/08/23 02:45:07;;;;;;;;;;;;;;;26.04;44.71;99775.56;3157640;28;19930;-73
2023/08/23 02:46:38;;;;;;;;;;;;;;;26.03;44.65;99776.56;3157763;28;19920;-72
2023/08/23 02:48:10;;;;;;;;;;;;;;;26.01;44.80;99778.56;3157406;28;19920;-73
2023/08/23 02:49:42;;;;;;;;;;;;;;;25.98;45.19;99781.56;3157531;28;20290;-73
2023/08/23 02:51:14;;;;;;;;;;;;;;;25.93;45.12;99773.25;3157398;28;19920;-73
2023/08/23 02:52:44;;;;;;;;;;;;;;;25.91;45.39;99775.25;3155226;28;19927;-72
2023/08/23 02:54:16;;;;;;;;;;;;;;;25.86;45.61;99773.09;3157554;28;20389;-73
2023/08/23 02:55:48;;;;;;;;;;;;;;;25.82;45.37;99782.44;3157628;28;19923;-75
2023/08/23 02:57:19;;;;;;;;;;;;;;;25.82;45.72;99770.91;3157588;28;19920;-74
2023/08/23 02:58:51;;;;;;;;;;;;;;;25.80;45.47;99779.06;3157483;28;19928;-73
2023/08/23 03:00:22;;;;;;;;;;;;;;;25.76;45.92;99777.72;3157631;28;19931;-76
2023/08/23 03:01:53;;;;;;;;;;;;;;;25.72;46.24;99778.22;3143579;28;19927;-77
2023/08/23 03:03:24;;;;;;;;;;;;;;;25.67;46.11;99778.72;3150043;28;19943;-76
2023/08/23 03:04:56;;;;;;;;;;;;;;;25.63;46.32;99772.91;3157530;28;20312;-75
2023/08/23 03:06:27;;;;;;;;;;;;;;;25.61;46.54;99776.72;3157600;28;19928;-76
2023/08/23 03:07:58;;;;;;;;;;;;;;;25.59;46.20;99771.56;3155089;28;19919;-77
2023/08/23 03:09:29;;;;;;;;;;;;;;;25.59;46.22;99778.75;3157983;28;20381;-79
2023/08/23 03:11:03;;;;;;;;;;;;;;;25.57;46.49;99778.91;3157742;28;19924;-77
2023/08/23 03:12:34;;;;;;;;;;;;;;;25.57;46.19;99778.06;3157395;28;19927;-78
2023/08/23 03:14:05;;;;;;;;;;;;;;;25.58;45.99;99777.88;3151435;28;19920;-77
2023/08/23 03:15:36;;;;;;;;;;;;;;;25.60;46.43;99781.22;3157567;28;20401;-77
2023/08/23 03:17:07;;;;;;;;;;;;;;;25.59;45.97;99774.25;3158112;28;19924;-76
2023/08/23 03:18:38;;;;;;;;;;;;;;;25.60;46.39;99780.41;3159013;28;20381;-76
2023/08/23 03:20:09;;;;;;;;;;;;;;;25.57;46.05;99778.91;3159537;28;20549;-76
2023/08/23 03:21:41;;;;;;;;;;;;;;;25.56;46.36;99776.41;3156184;28;19927;-76
2023/08/23 03:23:11;;;;;;;;;;;;;;;25.55;46.08;99780.88;3147551;28;19924;-76
2023/08/23 03:24:43;;;;;;;;;;;;;;;25.53;46.23;99779.41;3158223;28;19924;-76
2023/08/23 03:26:15;;;;;;;;;;;;;;;25.51;46.39;99773.41;3159718;28;19927;-76
2023/08/23 03:27:52;;;;;;;;;;;;;;;25.50;46.47;99772.56;3159395;28;20352;-76
2023/08/23 03:29:23;;;;;;;;;;;;;;;25.50;46.51;99777.09;3159746;28;20010;-76
2023/08/23 03:31:00;;;;;;;;;;;;;;;25.49;46.39;99773.56;3159468;28;19927;-76
2023/08/23 03:32:32;;;;;;;;;;;;;;;25.50;46.02;99777.91;3156831;28;19924;-77
2023/08/23 03:34:02;;;;;;;;;;;;;;;25.49;46.11;99775.41;3159750;28;19919;-77
2023/08/23 03:35:34;;;;;;;;;;;;;;;25.49;46.37;99780.72;3159480;28;19920;-78
2023/08/23 03:37:05;;;;;;;;;;;;;;;25.48;46.21;99779.06;3157023;28;20412;-78
2023/08/23 03:38:36;;;;;;;;;;;;;;;25.48;46.43;99779.06;3152647;28;19920;-77
2023/08/23 03:40:07;;;;;;;;;;;;;;;25.45;46.38;99777.56;3152391;28;20328;-78
2023/08/23 03:41:40;;;;;;;;;;;;;;;25.43;46.21;99775.06;3159368;28;19919;-78
2023/08/23 03:43:12;;;;;;;;;;;;;;;25.43;46.62;99779.56;3159416;28;19935;-77
2023/08/23 03:44:42;;;;;;;;;;;;;;;25.43;46.22;99779.56;3159531;28;19923;-77
2023/08/23 03:46:14;;;;;;;;;;;;;;;25.41;46.31;99778.91;3159712;28;19920;-76
2023/08/23 03:47:45;;;;;;;;;;;;;;;25.43;46.22;99783.06;3159114;28;19927;-76
2023/08/23 03:49:16;;;;;;;;;;;;;;;25.41;46.33;99781.56;3159422;28;19931;-76
2023/08/23 03:50:47;;;;;;;;;;;;;;;25.40;46.29;99786.03;3155841;28;19924;-75
2023/08/23 03:52:18;;;;;;;;;;;;;;;25.39;46.67;99780.91;3153538;28;19921;-76
2023/08/23 03:53:50;;;;;;;;;;;;;;;25.38;46.58;99788.06;3156300;28;20542;-76
2023/08/23 03:55:21;;;;;;;;;;;;;;;25.34;46.83;99784.03;3159144;28;20314;-75
2023/08/23 03:56:54;;;;;;;;;;;;;;;25.29;46.65;99778.41;3159395;28;19938;-75
2023/08/23 03:58:24;;;;;;;;;;;;;;;25.28;46.77;99781.22;3159360;28;19927;-79
2023/08/23 03:59:56;;;;;;;;;;;;;;;25.27;46.77;99777.72;3159472;28;19920;-77
2023/08/23 04:01:26;;;;;;;;;;;;;;;25.25;46.78;99784.22;3152029;28;20281;-74
2023/08/23 04:03:00;;;;;;;;;;;;;;;25.23;47.11;99780.88;3145703;28;19920;-69
2023/08/23 04:04:30;;;;;;;;;;;;;;;25.21;47.00;99778.38;3157750;28;19990;-69
2023/08/23 04:06:02;;;;;;;;;;;;;;;25.17;47.34;99772.56;3150582;28;20003;-69
2023/08/23 04:07:32;;;;;;;;;;;;;;;25.18;47.46;99773.38;3149497;28;20302;-69
2023/08/23 04:09:04;;;;;;;;;;;;;;;25.11;47.74;99773.19;3154996;28;19946;-69
2023/08/23 04:10:36;;;;;;;;;;;;;;;25.08;47.74;99773.50;3159136;28;20381;-68
2023/08/23 04:12:08;;;;;;;;;;;;;;;25.01;47.49;99766.31;3158239;28;19926;-76
2023/08/23 04:13:40;;;;;;;;;;;;;;;25.00;47.81;99778.81;3157852;28;20312;-74
2023/08/23 04:15:12;;;;;;;;;;;;;;;24.96;48.13;99774.78;3158743;28;19939;-75
2023/08/23 04:16:43;;;;;;;;;;;;;;;24.94;48.19;99774.97;3154612;28;20309;-79
2023/08/23 04:18:14;;;;;;;;;;;;;;;24.95;47.88;99773.13;3149990;28;19945;-76
2023/08/23 04:19:45;;;;;;;;;;;;;;;24.96;48.20;99772.13;3159531;28;19928;-75
2023/08/23 04:21:16;;;;;;;;;;;;;;;24.98;47.88;99778.13;3158588;28;19931;-75
2023/08/23 04:22:47;;;;;;;;;;;;;;;24.99;48.22;99777.13;3155187;28;19924;-75
2023/08/23 04:24:20;;;;;;;;;;;;;;;25.01;47.88;99772.47;3159244;28;19923;-74
2023/08/23 04:25:52;;;;;;;;;;;;;;;25.02;48.05;99779.47;3158837;28;20403;-71
2023/08/23 04:27:24;;;;;;;;;;;;;;;25.00;48.08;99776.16;3158963;28;19927;-73
2023/08/23 04:28:55;;;;;;;;;;;;;;;25.00;48.54;99775.31;3147443;28;19920;-71
2023/08/23 04:30:26;;;;;;;;;;;;;;;24.97;48.63;99773.81;3159047;28;19927;-72
2023/08/23 04:31:57;;;;;;;;;;;;;;;24.97;48.63;99771.13;3151252;28;19946;-76
2023/08/23 04:33:28;;;;;;;;;;;;;;;25.00;48.64;99780.63;3156753;28;19993;-71
2023/08/23 04:34:59;;;;;;;;;;;;;;;25.01;48.53;99771.63;3158419;28;19919;-76
2023/08/23 04:36:30;;;;;;;;;;;;;;;25.06;48.41;99780.81;3156384;28;19920;-74
2023/08/23 04:38:02;;;;;;;;;;;;;;;25.12;48.13;99774.84;3156652;28;19924;-72
2023/08/23 04:39:33;;;;;;;;;;;;;;;25.17;48.06;99777.03;3158727;28;19927;-69
2023/08/23 04:41:05;;;;;;;;;;;;;;;25.23;48.10;99780.88;3158707;28;19920;-71
2023/08/23 04:42:38;;;;;;;;;;;;;;;25.23;48.15;99779.06;3158691;28;20000;-76
2023/08/23 04:44:10;;;;;;;;;;;;;;;25.24;47.72;99782.56;3157958;28;20512;-75
2023/08/23 04:45:40;;;;;;;;;;;;;;;25.24;47.78;99787.88;3158081;28;20409;-74
2023/08/23 04:47:12;;;;;;;;;;;;;;;25.25;47.82;99784.22;3158362;28;19923;-74
2023/08/23 04:48:42;;;;;;;;;;;;;;;25.28;47.81;99787.38;3158618;28;20397;-77
2023/08/23 04:50:14;;;;;;;;;;;;;;;25.30;47.53;99793.38;3152256;28;19920;-70
2023/08/23 04:51:44;;;;;;;;;;;;;;;25.34;47.46;99791.22;3152057;28;19924;-74
2023/08/23 04:53:16;;;;;;;;;;;;;;;25.38;47.72;99800.56;3152603;28;19930;-71
2023/08/23 04:54:48;;;;;;;;;;;;;;;25.38;47.76;99793.41;3158654;28;19932;-69
2023/08/23 04:56:18;;;;;;;;;;;;;;;25.41;47.39;99794.91;3158031;28;19923;-73
2023/08/23 04:57:51;;;;;;;;;;;;;;;25.43;47.71;99790.22;3152978;28;19926;-68
2023/08/23 04:59:26;;;;;;;;;;;;;;;25.43;47.32;99799.03;3150528;28;19929;-66
2023/08/23 05:00:58;;;;;;;;;;;;;;;25.44;47.27;99797.25;3157281;28;19924;-67
2023/08/23 05:02:30;;;;;;;;;;;;;;;25.43;47.64;99796.38;3154497;28;19920;-67
2023/08/23 05:04:01;;;;;;;;;;;;;;;25.46;47.32;99791.72;3158121;28;20007;-67
2023/08/23 05:05:33;;;;;;;;;;;;;;;25.47;47.27;99788.91;3154342;28;19928;-68
2023/08/23 05:07:05;;;;;;;;;;;;;;;25.51;47.21;99792.91;3151405;28;19923;-69
2023/08/23 05:08:36;;;;;;;;;;;;;;;25.52;47.37;99789.22;3153541;28;20316;-69
2023/08/23 05:10:08;;;;;;;;;;;;;;;25.54;47.46;99789.06;3157869;28;19924;-67
2023/08/23 05:11:39;;;;;;;;;;;;;;;25.53;47.59;99785.56;3158362;28;19920;-68
2023/08/23 05:13:12;;;;;;;;;;;;;;;25.57;47.26;99788.75;3153430;28;19946;-68
2023/08/23 05:14:42;;;;;;;;;;;;;;;25.57;47.32;99778.91;3142843;28;19928;-68
2023/08/23 05:16:14;;;;;;;;;;;;;;;25.59;47.52;99786.75;3157783;28;19926;-68
2023/08/23 05:17:45;;;;;;;;;;;;;;;25.60;47.15;99785.75;3158095;28;20316;-67
2023/08/23 05:19:16;;;;;;;;;;;;;;;25.61;47.52;99788.22;3157818;28;19924;-67
2023/08/23 05:20:51;;;;;;;;;;;;;;;25.61;47.46;99782.88;3154261;28;20014;-66
2023/08/23 05:22:23;;;;;;;;;;;;;;;25.65;47.45;99788.75;3154653;28;19935;-67
2023/08/23 05:23:54;;;;;;;;;;;;;;;25.69;47.01;99792.72;3155779;28;20423;-67
2023/08/23 05:25:25;;;;;;;;;;;;;;;25.75;47.25;99786.72;3157930;28;19924;-67
2023/08/23 05:26:56;;;;;;;;;;;;;;;25.82;47.36;99793.09;3158097;28;19932;-68
2023/08/23 05:28:29;;;;;;;;;;;;;;;25.87;46.90;99787.25;3158187;28;20381;-69
2023/08/23 05:30:03;;;;;;;;;;;;;;;25.95;46.74;99787.25;3157698;28;19967;-68
2023/08/23 05:31:34;;;;;;;;;;;;;;;26.09;47.06;99791.91;3153768;28;19924;-67
2023/08/23 05:33:06;;;;;;;;;;;;;;;26.37;46.50;99785.31;3154482;28;19929;-68
2023/08/23 05:34:37;;;;;;;;;;;;;;;26.80;45.79;99777.81;3157864;28;20015;-66
2023/08/23 05:36:08;;;;;;;;;;;;;;;27.10;44.85;99771.66;3153137;28;20389;-69
2023/08/23 05:37:39;;;;;;;;;;;;;;;27.15;45.31;99777.34;3150605;28;19967;-71
2023/08/23 05:39:11;;;;;;;;;;;;;;;27.17;45.14;99769.13;3151504;28;19923;-72
2023/08/23 05:40:42;;;;;;;;;;;;;;;27.19;45.33;99780.47;3156865;28;20423;-70
2023/08/23 05:42:13;;;;;;;;;;;;;;;27.27;45.49;99772.38;3157786;28;19923;-69
2023/08/23 05:43:45;;;;;;;;;;;;;;;27.29;45.31;99780.25;3157539;28;19926;-69
2023/08/23 05:45:17;;;;;;;;;;;;;;;27.27;45.72;99766.22;3157493;28;20606;-72
2023/08/23 05:46:48;;;;;;;;;;;;;;;27.28;45.62;99767.91;3157960;28;19920;-71
2023/08/23 05:48:19;;;;;;;;;;;;;;;27.35;45.72;99763.50;3157481;28;19930;-68
2023/08/23 05:49:50;;;;;;;;;;;;;;;27.35;45.93;99761.63;3156906;28;19920;-71
2023/08/23 05:51:22;;;;;;;;;;;;;;;27.37;45.76;99766.81;3157238;28;20156;-68
2023/08/23 05:52:52;;;;;;;;;;;;;;;27.38;46.05;99763.94;3155986;28;20403;-73
2023/08/23 05:54:24;;;;;;;;;;;;;;;27.47;45.96;99761.22;3157596;28;19931;-71
2023/08/23 05:55:55;;;;;;;;;;;;;;;27.55;45.86;99769.19;3158048;28;19931;-71
2023/08/23 05:57:27;;;;;;;;;;;;;;;27.69;45.33;99755.03;3157523;28;19927;-72
2023/08/23 05:58:59;;;;;;;;;;;;;;;27.85;45.07;99759.41;3153250;28;20378;-69
2023/08/23 06:00:30;;;;;;;;;;;;;;;28.03;45.16;99762.56;3153292;28;20030;-72
2023/08/23 06:02:01;;;;;;;;;;;;;;;28.20;44.86;99757.88;3156241;28;19930;-73
2023/08/23 06:03:33;;;;;;;;;;;;;;;28.33;44.57;99759.91;3157836;28;19946;-74
2023/08/23 06:05:05;;;;;;;;;;;;;;;28.45;44.56;99760.28;3156916;28;19961;-75
2023/08/23 06:06:37;;;;;;;;;;;;;;;28.62;44.02;99758.25;3157919;28;20320;-69
2023/08/23 06:08:08;;;;;;;;;;;;;;;28.77;44.23;99756.38;3150709;28;19945;-68
2023/08/23 06:09:43;;;;;;;;;;;;;;;28.95;44.06;99759.44;3156724;28;20389;-68
2023/08/23 06:11:14;;;;;;;;;;;;;;;29.16;43.78;99764.03;3157654;28;20019;-68
2023/08/23 06:12:45;;;;;;;;;;;;;;;29.35;43.42;99764.44;3157510;28;19970;-72
2023/08/23 06:14:20;;;;;;;;;;;;;;;29.50;43.35;99762.50;3146204;28;20121;-69
2023/08/23 06:15:52;;;;;;;;;;;;;;;29.65;43.15;99765.16;3150062;28;19966;-69
2023/08/23 06:17:25;;;;;;;;;;;;;;;29.76;42.76;99763.75;3156817;28;19959;-69
2023/08/23 06:18:57;;;;;;;;;;;;;;;29.87;42.64;99768.59;3157694;28;19927;-67
2023/08/23 06:20:28;;;;;;;;;;;;;;;29.99;42.61;99764.34;3147709;28;19924;-68
2023/08/23 06:22:00;;;;;;;;;;;;;;;30.09;42.41;99775.59;3150738;28;19920;-68
2023/08/23 06:23:31;;;;;;;;;;;;;;;30.24;42.12;99778.19;3150277;28;19923;-68
2023/08/23 06:25:05;;;;;;;;;;;;;;;30.41;42.37;99773.34;3157040;28;19931;-66
2023/08/23 06:26:35;;;;;;;;;;;;;;;30.57;41.70;99770.28;3157463;28;20441;-68
2023/08/23 06:28:08;;;;;;;;;;;;;;;30.71;41.89;99762.31;3155992;28;19924;-68
2023/08/23 06:29:40;;;;;;;;;;;;;;;30.89;41.43;99776.03;3157358;28;19924;-70
2023/08/23 06:31:18;;;;;;;;;;;;;;;31.01;40.93;99778.97;3157473;28;19923;-68
2023/08/23 06:32:50;;;;;;;;;;;;;;;31.11;40.96;99779.41;3157717;28;19920;-69
2023/08/23 06:34:21;;;;;;;;;;;;;;;31.21;40.67;99782.53;3157171;28;19931;-68
2023/08/23 06:35:52;;;;;;;;;;;;;;;31.31;40.46;99778.63;3157659;28;19928;-68
2023/08/23 06:37:23;;;;;;;;;;;;;;;31.34;40.27;99778.19;3152791;28;19967;-67
2023/08/23 06:38:54;;;;;;;;;;;;;;;31.35;40.19;99788.78;3156783;28;19981;-67
2023/08/23 06:40:25;;;;;;;;;;;;;;;31.39;40.12;99783.84;3157335;28;19927;-68
2023/08/23 06:41:57;;;;;;;;;;;;;;;31.42;39.79;99784.25;3157417;28;19944;-68
2023/08/23 06:43:27;;;;;;;;;;;;;;;31.45;39.62;99783.00;3157756;28;19959;-68
2023/08/23 06:45:00;;;;;;;;;;;;;;;31.49;39.45;99787.75;3157164;28;19920;-67
2023/08/23 06:46:31;;;;;;;;;;;;;;;31.55;39.45;99788.81;3157722;28;19924;-68
2023/08/23 06:48:03;;;;;;;;;;;;;;;31.61;39.41;99790.66;3156537;28;19945;-68
2023/08/23 06:49:33;;;;;;;;;;;;;;;31.68;38.90;99785.28;3146531;28;19927;-67
2023/08/23 06:51:05;;;;;;;;;;;;;;;31.75;39.12;99782.59;3157460;28;19920;-67
2023/08/23 06:52:36;;;;;;;;;;;;;;;31.80;38.85;99790.88;3150803;28;19920;-68
2023/08/23 06:54:08;;;;;;;;;;;;;;;31.84;38.71;99787.56;3159721;28;19923;-70
2023/08/23 06:55:39;;;;;;;;;;;;;;;31.91;38.63;99793.78;3159484;28;20359;-71
2023/08/23 06:57:10;;;;;;;;;;;;;;;31.94;38.45;99793.38;3159528;28;20309;-70
2023/08/23 06:58:41;;;;;;;;;;;;;;;31.90;38.39;99792.16;3159528;28;19931;-68
2023/08/23 07:00:15;;;;;;;;;;;;;;;31.83;38.22;99788.63;3159906;28;19947;-69
2023/08/23 07:01:47;;;;;;;;;;;;;;;31.83;38.51;99787.78;3154226;28;19931;-68
2023/08/23 07:03:19;;;;;;;;;;;;;;;31.91;38.46;99784.88;3159863;28;20317;-68
2023/08/23 07:04:58;;;;;;;;;;;;;;;31.99;38.15;99792.75;3150629;28;20374;-67
2023/08/23 07:06:39;;;;;;;;;;;;;;;32.09;38.06;99784.25;3159703;28;20011;-67
2023/08/23 07:08:11;;;;;;;;;;;;;;;32.20;37.89;99794.38;3152082;28;19927;-66
2023/08/23 07:09:42;;;;;;;;;;;;;;;32.28;37.77;99782.56;3159874;28;20022;-71
2023/08/23 07:11:14;;;;;;;;;;;;;;;32.31;37.67;99779.44;3159571;28;20634;-69
2023/08/23 07:12:45;;;;;;;;;;;;;;;32.36;37.48;99785.00;3159933;28;19924;-68
2023/08/23 07:14:17;;;;;;;;;;;;;;;32.40;37.29;99773.59;3148104;28;20434;-66
2023/08/23 07:15:49;;;;;;;;;;;;;;;32.50;37.49;99777.75;3156031;28;19981;-64
2023/08/23 07:17:21;;;;;;;;;;;;;;;32.58;37.27;99780.22;3148544;28;19924;-67
2023/08/23 07:18:51;;;;;;;;;;;;;;;32.65;37.21;99775.59;3156579;28;19934;-66
2023/08/23 07:20:23;;;;;;;;;;;;;;;32.73;37.22;99772.69;3157059;28;19920;-66
2023/08/23 07:21:54;;;;;;;;;;;;;;;32.82;37.06;99770.56;3158694;28;19920;-66
2023/08/23 07:23:25;;;;;;;;;;;;;;;32.92;36.67;99770.09;3155901;28;19976;-64
2023/08/23 07:24:56;;;;;;;;;;;;;;;32.94;36.54;99774.22;3156332;28;19924;-68
2023/08/23 07:26:28;;;;;;;;;;;;;;;32.94;36.62;99771.53;3159780;28;20073;-65
2023/08/23 07:28:00;;;;;;;;;;;;;;;32.96;36.56;99771.34;3159205;28;19923;-65
2023/08/23 07:29:30;;;;;;;;;;;;;;;33.02;36.39;99763.22;3159193;28;19973;-67
2023/08/23 07:31:04;;;;;;;;;;;;;;;33.07;36.31;99763.41;3158091;28;20706;-67
2023/08/23 07:32:35;;;;;;;;;;;;;;;33.11;36.21;99765.66;3147675;28;19920;-69
2023/08/23 07:34:07;;;;;;;;;;;;;;;33.19;36.10;99768.94;3151712;28;19920;-68
2023/08/23 07:35:37;;;;;;;;;;;;;;;33.19;36.19;99768.09;3134339;28;20445;-68
2023/08/23 07:37:09;;;;;;;;;;;;;;;33.25;36.13;99765.38;3154775;28;19920;-67
2023/08/23 07:38:40;;;;;;;;;;;;;;;33.34;35.84;99765.06;3157747;28;19920;-67
2023/08/23 07:40:11;;;;;;;;;;;;;;;33.43;35.83;99772.72;3158028;28;19920;-63
2023/08/23 07:41:42;;;;;;;;;;;;;;;33.44;35.66;99766.25;3158934;28;20471;-65
2023/08/23 07:43:14;;;;;;;;;;;;;;;33.47;35.60;99765.00;3158516;28;19924;-68
2023/08/23 07:44:44;;;;;;;;;;;;;;;33.51;35.44;99769.78;3158915;28;19968;-65
2023/08/23 07:46:18;;;;;;;;;;;;;;;33.63;35.50;99758.25;3152974;28;19921;-66
2023/08/23 07:47:48;;;;;;;;;;;;;;;33.84;35.29;99757.00;3133424;28;20492;-64
2023/08/23 07:49:21;;;;;;;;;;;;;;;33.89;35.12;99757.19;3147946;28;19920;-67
2023/08/23 07:50:52;;;;;;;;;;;;;;;34.00;35.14;99761.03;3157049;28;20027;-68
2023/08/23 07:52:24;;;;;;;;;;;;;;;34.19;35.05;99752.75;3153963;28;20416;-67
2023/08/23 07:53:54;;;;;;;;;;;;;;;34.46;34.70;99751.59;3146254;28;20049;-66
2023/08/23 07:55:26;;;;;;;;;;;;;;;34.79;34.61;99751.22;3150840;28;20040;-70
2023/08/23 07:56:57;;;;;;;;;;;;;;;35.08;34.08;99752.28;3159051;28;19924;-67
2023/08/23 07:58:28;;;;;;;;;;;;;;;35.39;33.86;99751.19;3158921;28;19924;-65